To NAV CANADA Home Page Login to a new session Search on AWWS site Feedback and Comments Disclaimer Vers la page française équivalente Tips FAQ What's new on the site To the Forecasts and Observations / NOTAM section To "File a Flight Plan" website Publications and other links Update of the User's profile FIC Telephone Numbers My Weather Data Folder Route Weather Data Regional Weather Data Local Weather Data To the Forecasts and Observations / NOTAM section
Request Generated 03/28/2017 at 02:19:04 UTC . Weather information available at that time is displayed.

METAR/TAF

FORT ST. JOHN/BC    

METAR CYXJ 280200Z 11007KT 15SM FEW052 SCT100 BKN180 03/M03 A2982 RMK
SC1AC3AC3 SLP133=
METAR CYXJ 280100Z 08005KT 15SM FEW058 BKN110 04/M04 A2982 RMK SC1AC6
SLP133=
METAR CYXJ 280000Z 08005KT 15SM FEW050 BKN090 04/M04 A2983 RMK SC2AC5
SLP134=

TAF CYXJ 280038Z 2801/2813 VRB03KT P6SM BKN080
FM280400 12008KT P6SM SCT100
RMK NXT FCST BY 280700Z=
Your time UTC time
Weather data provided by Environment Canada and NAV CANADA